createdAt,value
2019-06-01T00:00:20.256Z,8.20
2019-06-01T00:01:20.150Z,7.70
2019-06-01T00:02:20.164Z,8.20
2019-06-01T00:03:20.088Z,7.70
2019-06-01T00:04:20.072Z,7.40
2019-06-01T00:05:20.049Z,8.00
2019-06-01T00:06:20.091Z,8.70
2019-06-01T00:07:19.996Z,8.00
2019-06-01T00:08:20.013Z,8.70
2019-06-01T00:09:19.948Z,8.40
2019-06-01T00:10:19.917Z,8.10
2019-06-01T00:11:19.891Z,8.20
2019-06-01T00:12:19.927Z,8.00
2019-06-01T00:13:19.847Z,8.50
2019-06-01T00:14:19.838Z,8.90
2019-06-01T00:15:19.790Z,8.20
2019-06-01T00:16:19.851Z,8.80
2019-06-01T00:17:19.746Z,8.80
2019-06-01T00:18:19.765Z,8.20
2019-06-01T00:19:19.689Z,8.40
2019-06-01T00:20:19.779Z,8.90
2019-06-01T00:21:19.645Z,8.30
2019-06-01T00:22:19.689Z,9.00
2019-06-01T00:23:19.591Z,9.20
2019-06-01T00:24:19.599Z,9.00
2019-06-01T00:25:19.537Z,8.50
2019-06-01T00:26:19.519Z,9.20
2019-06-01T00:27:19.524Z,8.80
2019-06-01T00:28:19.459Z,8.90
2019-06-01T00:29:19.550Z,8.70
2019-06-01T00:30:26.935Z,8.80
2019-06-01T00:31:19.387Z,8.60
2019-06-01T00:32:19.448Z,8.50
2019-06-01T00:33:19.340Z,8.70
2019-06-01T00:34:19.369Z,9.10
2019-06-01T00:35:19.271Z,7.90
2019-06-01T00:36:34.225Z,9.80
2019-06-01T00:37:19.226Z,9.10
2019-06-01T00:38:19.290Z,9.10
2019-06-01T00:39:19.173Z,9.70
2019-06-01T00:40:21.260Z,10.90
2019-06-01T00:41:19.135Z,10.00
2019-06-01T00:42:19.212Z,10.10
2019-06-01T00:43:19.090Z,9.40
2019-06-01T00:44:19.046Z,10.20
2019-06-01T00:45:19.029Z,9.90
2019-06-01T00:46:19.000Z,9.50
2019-06-01T00:47:18.983Z,9.50
2019-06-01T00:48:18.982Z,9.60
2019-06-01T00:49:18.928Z,9.70
2019-06-01T00:50:18.912Z,8.80
2019-06-01T00:51:18.878Z,9.40
2019-06-01T00:52:18.857Z,9.00
2019-06-01T00:53:18.826Z,8.50
2019-06-01T00:54:18.885Z,9.00
2019-06-01T00:55:18.772Z,9.00
2019-06-01T00:56:18.748Z,9.00
2019-06-01T00:57:21.923Z,10.00
2019-06-01T00:58:18.698Z,9.80
2019-06-01T00:59:18.669Z,10.20
2019-06-01T01:00:18.657Z,10.20
2019-06-01T01:01:18.624Z,10.00
2019-06-01T01:02:18.589Z,9.60
2019-06-01T01:03:18.567Z,10.90
2019-06-01T01:04:18.566Z,10.10
2019-06-01T01:05:18.555Z,10.10
2019-06-01T01:06:18.519Z,10.20
2019-06-01T01:07:18.481Z,11.00
2019-06-01T01:08:18.528Z,10.70
2019-06-01T01:09:18.420Z,10.30
2019-06-01T01:10:40.454Z,10.20
2019-06-01T01:11:18.363Z,10.20
2019-06-01T01:12:18.353Z,10.90
2019-06-01T01:13:19.380Z,10.40
2019-06-01T01:14:18.297Z,10.80
2019-06-01T01:15:20.336Z,10.60
2019-06-01T01:16:18.228Z,10.40
2019-06-01T01:17:19.303Z,10.80
2019-06-01T01:18:18.185Z,10.60
2019-06-01T01:19:27.312Z,10.70
2019-06-01T01:20:18.137Z,10.50
2019-06-01T01:21:20.156Z,10.50
2019-06-01T01:22:18.079Z,11.10
2019-06-01T01:23:19.135Z,11.20
2019-06-01T01:24:18.026Z,10.50
2019-06-01T01:25:32.680Z,10.90
2019-06-01T01:26:17.973Z,10.40
2019-06-01T01:27:24.702Z,10.50
2019-06-01T01:28:17.920Z,10.60
2019-06-01T01:30:17.874Z,11.10
2019-06-01T01:32:17.822Z,11.70
2019-06-01T01:33:18.005Z,12.00
2019-06-01T01:34:17.788Z,12.30
2019-06-01T01:36:17.788Z,12.30
2019-06-01T01:37:33.674Z,12.00
2019-06-01T01:38:17.668Z,13.40
2019-06-01T01:39:17.715Z,12.90
2019-06-01T01:40:17.614Z,12.70
2019-06-01T01:41:19.148Z,13.80
2019-06-01T01:42:18.662Z,13.20
2019-06-01T01:43:17.534Z,13.60
2019-06-01T01:44:17.513Z,13.30
2019-06-01T01:45:17.548Z,14.20
2019-06-01T01:46:17.466Z,13.80
2019-06-01T01:47:17.454Z,12.90
2019-06-01T01:48:18.517Z,13.70
2019-06-01T01:49:17.384Z,13.60
2019-06-01T01:50:17.480Z,13.90
2019-06-01T01:51:17.329Z,13.70
2019-06-01T01:52:17.391Z,13.70
2019-06-01T01:53:17.289Z,13.70
2019-06-01T01:54:17.290Z,13.70
2019-06-01T01:55:17.233Z,12.10
2019-06-01T01:56:17.304Z,12.60
2019-06-01T01:57:17.182Z,12.60
2019-06-01T01:58:17.156Z,13.00
2019-06-01T01:59:17.124Z,13.60
2019-06-01T02:00:17.144Z,12.50
2019-06-01T02:01:22.643Z,12.80
2019-06-01T02:02:17.160Z,13.40
2019-06-01T02:03:17.015Z,13.80
2019-06-01T02:04:17.059Z,13.40
2019-06-01T02:05:16.968Z,13.70
2019-06-01T02:06:16.967Z,13.40
2019-06-01T02:07:16.916Z,13.40
2019-06-01T02:08:16.889Z,13.60
2019-06-01T02:09:16.867Z,13.20
2019-06-01T02:10:16.837Z,13.30
2019-06-01T02:11:16.826Z,13.70
2019-06-01T02:12:16.789Z,13.10
2019-06-01T02:13:16.776Z,14.60
2019-06-01T02:14:16.733Z,13.40
2019-06-01T02:15:16.725Z,13.20
2019-06-01T02:16:16.735Z,13.60
2019-06-01T02:17:16.667Z,13.00
2019-06-01T02:18:16.641Z,13.10
2019-06-01T02:19:16.600Z,13.80
2019-06-01T02:20:16.650Z,13.20
2019-06-01T02:21:16.554Z,13.10
2019-06-01T02:22:17.588Z,12.20
2019-06-01T02:23:16.505Z,13.30
2019-06-01T02:24:18.579Z,12.90
2019-06-01T02:25:16.445Z,13.10
2019-06-01T02:26:17.537Z,13.40
2019-06-01T02:27:16.409Z,12.80
2019-06-01T02:28:33.255Z,12.80
2019-06-01T02:29:16.347Z,12.40
2019-06-01T02:30:17.352Z,12.00
2019-06-01T02:31:16.296Z,13.10
2019-06-01T02:32:16.353Z,12.70
2019-06-01T02:33:16.258Z,13.00
2019-06-01T02:34:31.213Z,12.40
2019-06-01T02:35:16.181Z,13.60
2019-06-01T02:36:23.753Z,13.40
2019-06-01T02:37:16.155Z,12.80
2019-06-01T02:39:16.089Z,13.20
2019-06-01T02:40:24.695Z,14.10
2019-06-01T02:41:16.032Z,14.00
2019-06-01T02:42:17.030Z,14.00
2019-06-01T02:43:15.985Z,13.90
2019-06-01T02:44:37.021Z,13.50
2019-06-01T02:45:15.946Z,13.60
2019-06-01T02:46:16.955Z,14.00
2019-06-01T02:47:15.887Z,14.00
2019-06-01T02:48:15.948Z,13.70
2019-06-01T02:49:15.820Z,13.30
2019-06-01T02:50:15.861Z,13.20
2019-06-01T02:51:15.770Z,13.80
2019-06-01T02:52:16.786Z,13.50
2019-06-01T02:53:15.728Z,13.50
2019-06-01T02:54:44.766Z,13.50
2019-06-01T02:55:15.675Z,13.20
2019-06-01T02:56:15.646Z,13.70
2019-06-01T02:57:15.702Z,13.50
2019-06-01T02:58:15.588Z,14.50
2019-06-01T02:59:22.265Z,13.70
2019-06-01T03:00:15.535Z,14.10
2019-06-01T03:01:15.628Z,13.90
2019-06-01T03:02:15.486Z,13.40
2019-06-01T03:03:22.189Z,13.90
2019-06-01T03:04:15.435Z,14.80
2019-06-01T03:05:15.456Z,14.00
2019-06-01T03:06:15.376Z,14.30
2019-06-01T03:07:31.233Z,14.30
2019-06-01T03:08:15.328Z,14.70
2019-06-01T03:09:15.375Z,14.20
2019-06-01T03:10:15.273Z,14.10
2019-06-01T03:11:31.266Z,15.00
2019-06-01T03:12:15.230Z,14.40
2019-06-01T03:14:15.167Z,14.80
2019-06-01T03:16:15.113Z,14.10
2019-06-01T03:17:17.169Z,14.40
2019-06-01T03:18:15.067Z,13.80
2019-06-01T03:19:29.773Z,14.90
2019-06-01T03:20:15.036Z,14.80
2019-06-01T03:21:42.796Z,14.40
2019-06-01T03:22:14.961Z,14.70
2019-06-01T03:23:14.935Z,13.70
2019-06-01T03:24:17.013Z,13.20
2019-06-01T03:25:14.880Z,14.30
2019-06-01T03:26:22.757Z,14.50
2019-06-01T03:27:14.829Z,14.20
2019-06-01T03:28:16.833Z,14.60
2019-06-01T03:29:14.795Z,14.40
2019-06-01T03:30:15.587Z,15.50
2019-06-01T03:31:16.674Z,13.90
2019-06-01T03:32:35.058Z,14.30
2019-06-01T03:33:14.686Z,14.40
2019-06-01T03:34:31.217Z,13.60
2019-06-01T03:35:14.627Z,13.90
2019-06-01T03:36:16.688Z,13.50
2019-06-01T03:37:14.564Z,13.50
2019-06-01T03:38:30.218Z,13.20
2019-06-01T03:39:14.527Z,13.30
2019-06-01T03:40:24.006Z,13.30
2019-06-01T03:41:14.487Z,14.30
2019-06-01T03:42:14.559Z,13.50
2019-06-01T03:43:14.408Z,13.70
2019-06-01T03:45:14.365Z,13.60
2019-06-01T03:46:15.422Z,13.20
2019-06-01T03:47:14.303Z,13.40
2019-06-01T03:49:14.247Z,13.40
2019-06-01T03:50:29.279Z,14.20
2019-06-01T03:51:14.196Z,13.60
2019-06-01T03:52:21.811Z,13.40
2019-06-01T03:53:14.142Z,13.70
2019-06-01T03:54:36.159Z,13.30
2019-06-01T03:55:14.099Z,12.80
2019-06-01T03:56:20.714Z,12.60
2019-06-01T03:57:14.042Z,13.30
2019-06-01T03:58:15.108Z,13.20
2019-06-01T03:59:14.003Z,13.20
2019-06-01T04:00:34.971Z,13.20
2019-06-01T04:01:13.946Z,12.30
2019-06-01T04:02:13.913Z,12.60
2019-06-01T04:03:20.758Z,13.00
2019-06-01T04:04:13.853Z,12.60
2019-06-01T04:05:13.934Z,12.60
2019-06-01T04:06:13.805Z,12.50
2019-06-01T04:07:39.097Z,12.00
2019-06-01T04:08:13.759Z,12.10
2019-06-01T04:09:13.831Z,11.70
2019-06-01T04:10:13.701Z,12.20
2019-06-01T04:11:29.216Z,12.30
2019-06-01T04:12:13.641Z,11.50
2019-06-01T04:13:21.244Z,12.40
2019-06-01T04:14:13.597Z,12.10
2019-06-01T04:16:13.542Z,11.70
2019-06-01T04:17:15.530Z,11.50
2019-06-01T04:18:14.070Z,11.70
2019-06-01T04:19:20.251Z,11.40
2019-06-01T04:20:13.430Z,10.90
2019-06-01T04:21:21.291Z,10.90
2019-06-01T04:22:13.381Z,10.80
2019-06-01T04:23:28.275Z,11.30
2019-06-01T04:24:13.330Z,10.30
2019-06-01T04:25:20.295Z,11.60
2019-06-01T04:26:13.275Z,11.30
2019-06-01T04:27:13.297Z,10.60
2019-06-01T04:28:13.252Z,11.20
2019-06-01T04:29:13.198Z,10.70
2019-06-01T04:30:13.702Z,9.90
2019-06-01T04:31:13.142Z,10.60
2019-06-01T04:32:13.126Z,11.00
2019-06-01T04:33:13.311Z,10.70
2019-06-01T04:34:13.202Z,10.30
2019-06-01T04:35:13.257Z,10.70
2019-06-01T04:36:13.158Z,10.60
2019-06-01T04:37:13.378Z,9.80
2019-06-01T04:38:13.429Z,9.90
2019-06-01T04:39:13.782Z,10.20
2019-06-01T04:40:13.679Z,10.20
2019-06-01T04:41:14.111Z,10.10
2019-06-01T04:42:13.936Z,10.50
2019-06-01T04:43:14.045Z,10.20
2019-06-01T04:44:14.207Z,9.90
2019-06-01T04:45:12.787Z,9.30
2019-06-01T04:46:12.814Z,9.90
2019-06-01T04:47:12.731Z,10.10
2019-06-01T04:48:12.716Z,10.30
2019-06-01T04:49:13.406Z,9.50
2019-06-01T04:50:13.141Z,9.40
2019-06-01T04:51:13.459Z,9.60
2019-06-01T04:52:13.565Z,9.50
2019-06-01T04:53:13.411Z,9.70
2019-06-01T04:54:14.440Z,9.80
2019-06-01T04:55:13.056Z,9.90
2019-06-01T04:56:13.075Z,8.80
2019-06-01T04:57:13.046Z,10.50
2019-06-01T04:58:13.103Z,9.60
2019-06-01T04:59:12.996Z,9.70
2019-06-01T05:00:25.796Z,9.80
2019-06-01T05:01:13.036Z,9.60
2019-06-01T05:02:13.143Z,9.50
2019-06-01T05:03:13.461Z,9.80
2019-06-01T05:04:13.274Z,9.00
2019-06-01T05:05:13.273Z,9.80
2019-06-01T05:06:13.402Z,9.50
2019-06-01T05:07:13.361Z,9.50
2019-06-01T05:08:13.873Z,9.50
2019-06-01T05:09:13.294Z,10.00
2019-06-01T05:10:14.137Z,9.70
2019-06-01T05:11:12.095Z,9.80
2019-06-01T05:12:13.515Z,10.10
2019-06-01T05:13:12.043Z,9.40
2019-06-01T05:14:12.077Z,10.10
2019-06-01T05:15:11.987Z,8.80
2019-06-01T05:16:13.389Z,9.60
2019-06-01T05:17:13.392Z,9.30
2019-06-01T05:18:12.134Z,8.80
2019-06-01T05:19:12.255Z,9.30
2019-06-01T05:20:12.525Z,9.50
2019-06-01T05:21:12.878Z,10.20
2019-06-01T05:22:12.600Z,9.10
2019-06-01T05:23:12.701Z,9.40
2019-06-01T05:24:12.702Z,9.00
2019-06-01T05:25:12.263Z,9.50
2019-06-01T05:26:12.856Z,9.80
2019-06-01T05:27:11.674Z,8.70
2019-06-01T05:28:11.663Z,9.40
2019-06-01T05:29:11.747Z,8.40
2019-06-01T05:30:11.678Z,8.70
2019-06-01T05:31:16.708Z,7.50
2019-06-01T05:32:12.577Z,8.50
2019-06-01T05:33:27.735Z,8.60
2019-06-01T05:34:11.792Z,8.80
2019-06-01T05:35:11.806Z,9.10
2019-06-01T05:36:12.026Z,8.80
2019-06-01T05:37:12.360Z,9.10
2019-06-01T05:38:12.201Z,9.90
2019-06-01T05:39:12.447Z,8.90
2019-06-01T05:40:12.463Z,9.10
2019-06-01T05:41:11.924Z,9.20
2019-06-01T05:42:12.548Z,9.00
2019-06-01T05:43:15.722Z,9.10
2019-06-01T05:44:11.224Z,8.80
2019-06-01T05:45:11.314Z,8.30
2019-06-01T05:46:11.852Z,8.40
2019-06-01T05:47:12.138Z,9.00
2019-06-01T05:48:13.066Z,8.60
2019-06-01T05:49:12.022Z,9.40
2019-06-01T05:50:12.217Z,8.10
2019-06-01T05:51:13.719Z,9.00
2019-06-01T05:52:12.319Z,9.80
2019-06-01T05:53:12.403Z,8.90
2019-06-01T05:54:11.136Z,8.50
2019-06-01T05:55:10.938Z,8.40
2019-06-01T05:56:10.938Z,9.00
2019-06-01T05:57:10.885Z,8.70
2019-06-01T05:58:10.972Z,8.70
2019-06-01T05:59:11.880Z,8.90
2019-06-01T06:00:11.011Z,9.10
2019-06-01T06:01:10.798Z,9.20
2019-06-01T06:02:11.806Z,8.50
2019-06-01T06:03:12.875Z,8.80
2019-06-01T06:04:11.359Z,8.20
2019-06-01T06:05:10.710Z,8.30
2019-06-01T06:06:11.715Z,9.40
2019-06-01T06:07:10.706Z,7.90
2019-06-01T06:08:12.562Z,8.40
2019-06-01T06:09:11.502Z,8.90
2019-06-01T06:10:11.787Z,8.20
2019-06-01T06:11:10.840Z,8.80
2019-06-01T06:12:11.259Z,8.50
2019-06-01T06:13:11.128Z,8.70
2019-06-01T06:14:11.505Z,8.30
2019-06-01T06:15:11.423Z,8.30
2019-06-01T06:16:11.639Z,8.60
2019-06-01T06:17:13.712Z,8.20
2019-06-01T06:18:11.585Z,8.70
2019-06-01T06:19:10.303Z,7.90
2019-06-01T06:20:10.284Z,8.80
2019-06-01T06:21:10.254Z,8.50
2019-06-01T06:22:10.226Z,7.90
2019-06-01T06:23:10.203Z,8.70
2019-06-01T06:24:10.174Z,8.00
2019-06-01T06:25:10.203Z,8.10
2019-06-01T06:26:10.135Z,7.70
2019-06-01T06:27:10.411Z,8.60
2019-06-01T06:28:10.073Z,8.30
2019-06-01T06:29:10.307Z,8.60
2019-06-01T06:30:10.018Z,8.90
2019-06-01T06:31:10.049Z,7.90
2019-06-01T06:32:09.956Z,8.50
2019-06-01T06:33:09.959Z,8.50
2019-06-01T06:34:09.925Z,8.60
2019-06-01T06:35:09.990Z,7.90
2019-06-01T06:36:09.879Z,8.10
2019-06-01T06:37:09.834Z,8.20
2019-06-01T06:38:09.803Z,7.20
2019-06-01T06:39:09.804Z,7.70
2019-06-01T06:40:09.761Z,7.60
2019-06-01T06:41:10.836Z,7.20
2019-06-01T06:42:09.699Z,7.10
2019-06-01T06:43:19.040Z,7.30
2019-06-01T06:44:09.645Z,7.40
2019-06-01T06:45:09.707Z,7.10
2019-06-01T06:46:09.643Z,7.20
2019-06-01T06:47:09.575Z,6.40
2019-06-01T06:48:09.544Z,6.90
2019-06-01T06:49:10.169Z,7.50
2019-06-01T06:50:10.687Z,6.70
2019-06-01T06:51:09.467Z,7.50
2019-06-01T06:52:09.478Z,6.50
2019-06-01T06:53:24.227Z,6.30
2019-06-01T06:54:09.387Z,6.70
2019-06-01T06:55:09.358Z,6.50
2019-06-01T06:56:09.339Z,7.10
2019-06-01T06:57:09.308Z,6.40
2019-06-01T06:58:09.319Z,6.40
2019-06-01T06:59:11.711Z,6.10
2019-06-01T07:00:09.234Z,6.10
2019-06-01T07:01:12.097Z,6.10
2019-06-01T07:02:09.189Z,6.10
2019-06-01T07:03:09.149Z,5.90
2019-06-01T07:04:12.745Z,6.40
2019-06-01T07:05:09.095Z,6.10
2019-06-01T07:06:09.083Z,5.60
2019-06-01T07:07:09.049Z,5.70
2019-06-01T07:08:09.100Z,6.20
2019-06-01T07:09:09.029Z,5.60
2019-06-01T07:10:08.963Z,5.70
2019-06-01T07:11:11.864Z,5.30
2019-06-01T07:12:08.911Z,5.50
2019-06-01T07:13:12.750Z,5.50
2019-06-01T07:14:08.867Z,6.10
2019-06-01T07:15:08.866Z,5.60
2019-06-01T07:16:08.805Z,5.90
2019-06-01T07:17:08.788Z,5.80
2019-06-01T07:18:10.256Z,5.80
2019-06-01T07:19:08.771Z,5.40
2019-06-01T07:20:08.716Z,5.10
2019-06-01T07:21:08.764Z,5.00
2019-06-01T07:22:08.676Z,5.50
2019-06-01T07:23:08.678Z,5.00
2019-06-01T07:24:08.591Z,5.40
2019-06-01T07:25:08.587Z,4.80
2019-06-01T07:26:08.558Z,4.80
2019-06-01T07:27:08.599Z,4.70
2019-06-01T07:28:08.491Z,4.70
2019-06-01T07:29:08.536Z,4.30
2019-06-01T07:30:08.439Z,4.10
2019-06-01T07:31:08.410Z,4.20
2019-06-01T07:32:08.714Z,3.60
2019-06-01T07:33:08.368Z,4.30
2019-06-01T07:34:08.329Z,4.20
2019-06-01T07:35:08.305Z,3.90
2019-06-01T07:36:08.276Z,3.80
2019-06-01T07:37:08.246Z,3.70
2019-06-01T07:38:08.250Z,3.80
2019-06-01T07:39:08.204Z,3.70
2019-06-01T07:40:13.049Z,3.90
2019-06-01T07:41:08.139Z,3.70
2019-06-01T07:42:08.493Z,3.80
2019-06-01T07:43:08.087Z,3.70
2019-06-01T07:44:10.153Z,3.80
2019-06-01T07:45:08.048Z,3.90
2019-06-01T07:46:08.193Z,4.40
2019-06-01T07:47:07.989Z,3.80
2019-06-01T07:48:07.959Z,4.10
2019-06-01T07:49:07.927Z,4.50
2019-06-01T07:50:07.909Z,3.70
2019-06-01T07:51:07.886Z,3.90
2019-06-01T07:52:12.585Z,3.90
2019-06-01T07:53:07.828Z,3.80
2019-06-01T07:54:07.811Z,3.60
2019-06-01T07:55:07.769Z,3.70
2019-06-01T07:56:08.774Z,4.10
2019-06-01T07:57:07.721Z,4.20
2019-06-01T07:58:07.730Z,4.00
2019-06-01T07:59:07.689Z,4.20
2019-06-01T08:00:07.651Z,4.10
2019-06-01T08:01:07.617Z,4.20
2019-06-01T08:02:07.602Z,4.50
2019-06-01T08:03:07.588Z,4.60
2019-06-01T08:04:07.545Z,4.20
2019-06-01T08:05:07.513Z,4.90
2019-06-01T08:06:07.509Z,4.60
2019-06-01T08:07:07.503Z,4.70
2019-06-01T08:08:07.443Z,4.30
2019-06-01T08:09:07.409Z,4.20
2019-06-01T08:10:08.393Z,3.90
2019-06-01T08:11:07.371Z,4.10
2019-06-01T08:12:07.348Z,4.20
2019-06-01T08:13:07.308Z,4.10
2019-06-01T08:14:07.281Z,4.00
2019-06-01T08:15:07.254Z,4.00
2019-06-01T08:16:07.233Z,3.90
2019-06-01T08:17:07.190Z,4.40
2019-06-01T08:18:07.193Z,3.50
2019-06-01T08:19:07.149Z,3.70
2019-06-01T08:20:07.127Z,3.40
2019-06-01T08:21:07.093Z,3.90
2019-06-01T08:22:07.100Z,3.70
2019-06-01T08:23:07.045Z,3.60
2019-06-01T08:24:07.148Z,3.60
2019-06-01T08:25:07.038Z,3.60
2019-06-01T08:26:06.961Z,3.50
2019-06-01T08:27:06.932Z,4.00
2019-06-01T08:28:06.929Z,4.00
2019-06-01T08:29:06.889Z,4.00
2019-06-01T08:30:06.853Z,3.50
2019-06-01T08:31:06.834Z,3.50
2019-06-01T08:32:06.807Z,3.50
2019-06-01T08:33:06.781Z,3.70
2019-06-01T08:34:06.769Z,3.40
2019-06-01T08:35:09.092Z,3.70
2019-06-01T08:36:06.704Z,3.50
2019-06-01T08:37:06.703Z,3.30
2019-06-01T08:38:06.651Z,3.80
2019-06-01T08:39:06.634Z,3.70
2019-06-01T08:40:06.597Z,3.60
2019-06-01T08:41:06.574Z,3.40
2019-06-01T08:42:06.571Z,4.10
2019-06-01T08:43:06.520Z,3.80
2019-06-01T08:44:06.507Z,3.60
2019-06-01T08:45:06.482Z,4.20
2019-06-01T08:46:06.441Z,4.30
2019-06-01T08:47:06.419Z,4.10
2019-06-01T08:48:06.400Z,4.10
2019-06-01T08:49:06.365Z,4.30
2019-06-01T08:50:06.336Z,3.60
2019-06-01T08:51:06.367Z,3.40
2019-06-01T08:52:06.287Z,3.50
2019-06-01T08:53:06.270Z,3.00
2019-06-01T08:54:06.232Z,3.30
2019-06-01T08:55:06.215Z,3.10
2019-06-01T08:56:06.199Z,3.00
2019-06-01T08:57:06.164Z,3.30
2019-06-01T08:58:06.126Z,3.00
2019-06-01T08:59:06.100Z,3.70
2019-06-01T09:00:06.072Z,3.60
2019-06-01T09:01:06.052Z,3.20
2019-06-01T09:02:06.027Z,3.10
2019-06-01T09:03:06.003Z,3.10
2019-06-01T09:04:05.979Z,3.20
2019-06-01T09:05:05.951Z,3.20
2019-06-01T09:06:05.921Z,3.00
2019-06-01T09:07:05.895Z,2.80
2019-06-01T09:08:05.868Z,3.30
2019-06-01T09:09:05.858Z,3.00
2019-06-01T09:10:05.820Z,3.10
2019-06-01T09:11:05.820Z,3.60
2019-06-01T09:12:05.832Z,3.80
2019-06-01T09:13:05.757Z,3.20
2019-06-01T09:14:05.720Z,3.00
2019-06-01T09:15:05.697Z,3.50
2019-06-01T09:16:05.698Z,3.40
2019-06-01T09:17:05.651Z,3.60
2019-06-01T09:18:05.611Z,3.10
2019-06-01T09:19:05.590Z,3.10
2019-06-01T09:20:05.556Z,4.00
2019-06-01T09:21:05.589Z,3.40
2019-06-01T09:22:05.527Z,3.30
2019-06-01T09:23:05.520Z,3.40
2019-06-01T09:24:05.457Z,3.30
2019-06-01T09:25:05.437Z,3.60
2019-06-01T09:26:05.407Z,3.30
2019-06-01T09:27:05.403Z,3.20
2019-06-01T09:28:05.354Z,3.00
2019-06-01T09:29:05.334Z,3.70
2019-06-01T09:30:05.309Z,3.30
2019-06-01T09:31:05.303Z,3.80
2019-06-01T09:32:09.468Z,3.90
2019-06-01T09:33:05.232Z,3.60
2019-06-01T09:34:05.217Z,4.30
2019-06-01T09:35:06.184Z,4.00
2019-06-01T09:36:05.151Z,3.50
2019-06-01T09:37:05.133Z,3.70
2019-06-01T09:38:05.099Z,3.90
2019-06-01T09:39:05.079Z,3.60
2019-06-01T09:40:05.052Z,3.40
2019-06-01T09:41:05.034Z,3.30
2019-06-01T09:42:04.992Z,3.30
2019-06-01T09:43:05.023Z,3.30
2019-06-01T09:44:04.951Z,2.90
2019-06-01T09:45:04.932Z,3.30
2019-06-01T09:46:04.894Z,3.40
2019-06-01T09:47:04.885Z,3.60
2019-06-01T09:48:04.847Z,3.30
2019-06-01T09:49:04.824Z,3.10
2019-06-01T09:50:04.800Z,3.90
2019-06-01T09:51:05.782Z,3.70
2019-06-01T09:52:04.766Z,3.30
2019-06-01T09:53:04.730Z,3.50
2019-06-01T09:54:04.701Z,3.10
2019-06-01T09:55:04.687Z,3.10
2019-06-01T09:56:04.650Z,3.10
2019-06-01T09:57:04.637Z,3.60
2019-06-01T09:58:04.612Z,3.70
2019-06-01T09:59:04.586Z,3.70
2019-06-01T10:00:04.614Z,3.40
2019-06-01T10:01:04.520Z,3.30
2019-06-01T10:02:04.489Z,3.10
2019-06-01T10:03:04.475Z,3.30
2019-06-01T10:04:04.454Z,3.50
2019-06-01T10:05:04.431Z,3.50
2019-06-01T10:06:04.402Z,3.30
2019-06-01T10:07:04.374Z,3.40
2019-06-01T10:08:04.357Z,3.40
2019-06-01T10:09:04.326Z,3.10
2019-06-01T10:10:04.306Z,3.30
2019-06-01T10:11:04.287Z,3.40
2019-06-01T10:12:04.257Z,3.90
2019-06-01T10:13:07.515Z,3.30
2019-06-01T10:14:04.194Z,3.40
2019-06-01T10:15:05.201Z,3.20
2019-06-01T10:16:04.161Z,2.90
2019-06-01T10:17:05.151Z,3.30
2019-06-01T10:18:04.193Z,3.10
2019-06-01T10:19:05.089Z,3.30
2019-06-01T10:20:04.054Z,3.00
2019-06-01T10:21:04.045Z,3.40
2019-06-01T10:22:04.007Z,3.50
2019-06-01T10:23:03.997Z,3.70
2019-06-01T10:24:03.959Z,3.20
2019-06-01T10:25:03.938Z,3.50
2019-06-01T10:26:03.910Z,3.40
2019-06-01T10:27:03.906Z,3.70
2019-06-01T10:28:03.855Z,3.50
2019-06-01T10:29:03.846Z,3.70
2019-06-01T10:30:03.811Z,3.20
2019-06-01T10:31:04.799Z,3.60
2019-06-01T10:32:03.766Z,3.40
2019-06-01T10:33:04.747Z,3.00
2019-06-01T10:34:04.073Z,3.10
2019-06-01T10:35:04.721Z,3.00
2019-06-01T10:36:19.350Z,2.80
2019-06-01T10:37:03.664Z,3.00
2019-06-01T10:38:04.617Z,2.70
2019-06-01T10:39:03.610Z,3.20
2019-06-01T10:40:03.574Z,3.00
2019-06-01T10:41:03.562Z,2.70
2019-06-01T10:42:03.516Z,3.00
2019-06-01T10:43:03.502Z,3.10
2019-06-01T10:44:03.464Z,3.00
2019-06-01T10:45:03.448Z,3.00
2019-06-01T10:46:04.417Z,3.50
2019-06-01T10:47:03.410Z,3.40
2019-06-01T10:48:05.315Z,3.30
2019-06-01T10:49:03.345Z,3.00
2019-06-01T10:50:03.332Z,2.90
2019-06-01T10:51:03.380Z,3.30
2019-06-01T10:52:03.278Z,3.00
2019-06-01T10:53:03.243Z,3.80
2019-06-01T10:54:03.249Z,3.20
2019-06-01T10:55:03.188Z,3.00
2019-06-01T10:56:03.176Z,3.20
2019-06-01T10:57:03.162Z,3.00
2019-06-01T10:58:03.134Z,3.00
2019-06-01T10:59:03.177Z,3.70
2019-06-01T11:00:03.075Z,3.80
2019-06-01T11:01:03.063Z,3.20
2019-06-01T11:02:03.027Z,3.20
2019-06-01T11:03:03.062Z,3.60
2019-06-01T11:04:02.974Z,3.00
2019-06-01T11:05:02.955Z,3.10
2019-06-01T11:06:02.923Z,3.00
2019-06-01T11:07:02.897Z,2.80
2019-06-01T11:55:00.629Z,2.50
2019-06-01T11:59:32.449Z,2.10
2019-06-01T12:00:33.422Z,2.20
2019-06-01T12:01:32.396Z,2.60
2019-06-01T12:02:39.644Z,2.30
2019-06-01T12:03:32.343Z,2.70
2019-06-01T12:04:39.814Z,2.80
2019-06-01T12:05:32.290Z,2.60
2019-06-01T12:06:32.277Z,2.80
2019-06-01T12:07:32.251Z,2.60
2019-06-01T12:08:39.954Z,2.70
2019-06-01T12:09:32.197Z,2.70
2019-06-01T12:10:32.171Z,2.40
2019-06-01T12:11:32.209Z,2.40
2019-06-01T12:12:33.131Z,2.10
2019-06-01T12:13:32.102Z,2.10
2019-06-01T12:14:32.096Z,2.10
2019-06-01T12:15:32.062Z,1.70
2019-06-01T12:16:33.030Z,1.80
2019-06-01T12:17:32.044Z,1.80
2019-06-01T12:18:32.012Z,2.00
2019-06-01T12:19:31.965Z,2.00
2019-06-01T12:20:31.931Z,1.90
2019-06-01T12:21:31.912Z,2.00
2019-06-01T12:22:33.885Z,1.80
2019-06-01T12:23:31.855Z,1.90
2019-06-01T12:24:33.845Z,1.80
2019-06-01T12:25:31.812Z,1.90
2019-06-01T12:26:33.805Z,1.90
2019-06-01T12:27:31.764Z,1.90
2019-06-01T12:28:32.762Z,2.00
2019-06-01T12:29:31.742Z,2.10
2019-06-01T12:30:33.698Z,1.90
2019-06-01T12:31:31.671Z,2.00
2019-06-01T12:32:31.691Z,2.00
2019-06-01T12:33:31.621Z,2.00
2019-06-01T12:34:31.613Z,2.10
2019-06-01T12:35:31.575Z,2.20
2019-06-01T12:36:31.550Z,1.90
2019-06-01T12:37:45.377Z,2.20
2019-06-01T12:38:31.506Z,2.00
2019-06-01T12:39:31.488Z,2.10
2019-06-01T12:40:31.459Z,1.90
2019-06-01T12:41:31.447Z,1.90
2019-06-01T12:42:31.451Z,2.10
2019-06-01T12:43:31.414Z,2.00
2019-06-01T12:44:31.372Z,2.30
2019-06-01T12:45:31.338Z,2.20
2019-06-01T12:46:31.318Z,2.10
2019-06-01T12:47:31.282Z,1.90
2019-06-01T12:48:31.287Z,2.10
2019-06-01T12:49:31.238Z,2.20
2019-06-01T12:50:31.217Z,2.70
2019-06-01T12:51:31.206Z,1.90
2019-06-01T12:52:31.172Z,2.30
2019-06-01T12:53:31.144Z,2.30
2019-06-01T12:54:31.122Z,2.20
2019-06-01T12:55:31.097Z,1.90
2019-06-01T12:56:31.075Z,2.30
2019-06-01T12:57:31.046Z,2.40
2019-06-01T12:58:31.053Z,2.00
2019-06-01T12:59:31.009Z,2.10
2019-06-01T13:00:30.976Z,2.20
2019-06-01T13:01:30.960Z,1.90
2019-06-01T13:02:30.937Z,2.20
2019-06-01T13:03:30.901Z,2.20
2019-06-01T13:04:30.886Z,2.30
2019-06-01T13:05:30.868Z,1.70
2019-06-01T13:06:30.838Z,1.80
2019-06-01T13:07:30.805Z,1.90
2019-06-01T13:08:30.782Z,1.90
2019-06-01T13:09:30.768Z,1.90
2019-06-01T13:10:30.736Z,1.90
2019-06-01T13:11:30.719Z,1.70
2019-06-01T13:12:30.728Z,2.00
2019-06-01T13:13:30.669Z,1.70
2019-06-01T13:14:30.658Z,2.10
2019-06-01T13:15:30.643Z,2.10
2019-06-01T13:16:30.619Z,2.00
2019-06-01T13:17:30.655Z,2.00
2019-06-01T13:18:30.566Z,1.90
2019-06-01T13:19:30.530Z,1.90
2019-06-01T13:20:30.515Z,1.90
2019-06-01T13:21:30.483Z,2.20
2019-06-01T13:22:30.489Z,2.00
2019-06-01T13:23:30.437Z,1.60
2019-06-01T13:24:30.419Z,1.80
2019-06-01T13:25:30.390Z,1.70
2019-06-01T13:26:30.369Z,1.60
2019-06-01T13:27:30.333Z,1.50
2019-06-01T13:28:38.219Z,1.60
2019-06-01T13:29:30.295Z,1.40
2019-06-01T13:30:30.269Z,1.30
2019-06-01T13:31:30.235Z,2.00
2019-06-01T13:32:30.227Z,1.70
2019-06-01T13:33:30.198Z,1.70
2019-06-01T13:34:33.817Z,1.80
2019-06-01T13:35:30.163Z,1.70
2019-06-01T13:36:30.136Z,1.60
2019-06-01T13:37:30.101Z,1.80
2019-06-01T13:38:30.074Z,1.60
2019-06-01T13:39:30.071Z,1.80
2019-06-01T13:40:30.033Z,1.70
2019-06-01T13:41:30.007Z,2.30
2019-06-01T13:42:29.988Z,1.90
2019-06-01T13:43:29.959Z,2.00
2019-06-01T13:44:29.951Z,1.70
2019-06-01T13:45:29.977Z,1.60
2019-06-01T13:46:29.895Z,1.80
2019-06-01T13:47:29.857Z,1.80
2019-06-01T13:48:29.840Z,1.70
2019-06-01T13:49:29.843Z,1.80
2019-06-01T13:50:29.796Z,1.60
2019-06-01T13:51:29.766Z,1.70
2019-06-01T13:52:29.778Z,1.80
2019-06-01T13:53:29.722Z,1.60
2019-06-01T13:54:29.694Z,1.70
2019-06-01T13:55:29.685Z,1.80
2019-06-01T13:56:29.650Z,1.80
2019-06-01T13:57:29.626Z,2.00
2019-06-01T13:58:29.600Z,1.80
2019-06-01T13:59:29.582Z,1.80
2019-06-01T14:00:30.821Z,1.70
2019-06-01T14:01:29.541Z,2.10
2019-06-01T14:02:29.515Z,2.00
2019-06-01T14:03:29.485Z,1.70
2019-06-01T14:04:29.467Z,1.70
2019-06-01T14:05:29.443Z,1.80
2019-06-01T14:06:29.447Z,1.80
2019-06-01T14:07:29.403Z,1.60
2019-06-01T14:08:29.534Z,2.00
2019-06-01T14:09:29.364Z,1.60
2019-06-01T14:10:29.331Z,1.80